»·PEaware :: N20957 KSBD-KPRC

N20957 :: KSBD-KPRC

FLIGHT INFORMATION

Flight Status: Arrived
Operator: Privately registered:
United States
More flights under this callsign
Pilot: Charles P. (32095)
Aircraft: CESSNA 172 SKYHAWK
(C172)
More flights by this aircraft type
Origin: KSBD San Bernardino Intl
United States
Destination: KPRC Love
United States
More flights between these airports :: More routes between these airports
Route:
File this flight plan on PilotEdge
Remarks: N / A
Altitude:
(Current/Filed)
9,500ft
Speed:
(Current/Filed)
124kts
Departed: 28-Mar-21 05:42 PM
Arrived: 28-Mar-21 07:50 PM
Distance/Time
Traveled:
241nm/2:08
Distance/Time
To Go:
Arrived

Flight Plot

Page will automatically refresh every two minutes.

Flight plan parsing failed; only flown route is shown


Map Options




Map Legend


Flown Route
Filed Route
Departure Airport
Arrival Airport
Navaid (VOR, NDB)
Fix

Horizontal Profiles

Position Reports

Time Latitude Longitude Heading Altitude Ground
Speed
28-Mar-21 17:21 34.101142 -117.227733 15 1145ft 0kts
28-Mar-21 17:21 34.101142 -117.227733 15 1145ft 0kts
28-Mar-21 17:23 34.101142 -117.227733 15 1145ft 0kts
28-Mar-21 17:24 34.101142 -117.227733 15 1145ft 0kts
28-Mar-21 17:24 34.101142 -117.227733 15 1145ft 0kts
28-Mar-21 17:26 34.101142 -117.227733 15 1145ft 0kts
28-Mar-21 17:26 34.101142 -117.227733 15 1145ft 0kts
28-Mar-21 17:27 34.101142 -117.227733 15 1145ft 0kts
28-Mar-21 17:29 34.101142 -117.227733 15 1145ft 0kts
28-Mar-21 17:29 34.101142 -117.227733 15 1145ft 0kts
28-Mar-21 17:31 34.101142 -117.227733 15 1145ft 0kts
28-Mar-21 17:31 34.100939 -117.227885 170 1145ft 9kts
28-Mar-21 17:32 34.099141 -117.228369 249 1142ft 7kts
28-Mar-21 17:33 34.098185 -117.231624 250 1137ft 12kts
28-Mar-21 17:34 34.096642 -117.236847 251 1123ft 16kts
28-Mar-21 17:35 34.095001 -117.242395 249 1103ft 14kts
28-Mar-21 17:36 34.093659 -117.246935 250 1098ft 9kts
28-Mar-21 17:37 34.092204 -117.251021 186 1087ft 10kts
28-Mar-21 17:38 34.091563 -117.250818 159 1086ft 0kts
28-Mar-21 17:39 34.091563 -117.250818 159 1086ft 0kts
28-Mar-21 17:40 34.090964 -117.249731 78 1088ft 7kts
28-Mar-21 17:41 34.096540 -117.231042 69 1448ft 78kts
28-Mar-21 17:42 34.105265 -117.204041 66 2006ft 96kts
28-Mar-21 17:43 34.115915 -117.175559 63 2757ft 86kts
28-Mar-21 17:44 34.126473 -117.152063 57 3536ft 72kts
28-Mar-21 17:45 34.139365 -117.129883 53 4050ft 88kts
28-Mar-21 17:46 34.155172 -117.105861 51 4513ft 91kts
28-Mar-21 17:47 34.164624 -117.078765 91 5051ft 94kts
28-Mar-21 17:48 34.168872 -117.047458 73 5546ft 95kts
28-Mar-21 17:49 34.177283 -117.017702 72 6015ft 94kts
28-Mar-21 17:50 34.185300 -116.987767 81 6464ft 89kts
28-Mar-21 17:51 34.187237 -116.958123 87 6949ft 86kts
28-Mar-21 17:52 34.186924 -116.928530 92 7471ft 90kts
28-Mar-21 17:53 34.185929 -116.898192 92 7944ft 89kts
28-Mar-21 17:54 34.184986 -116.868830 92 8438ft 85kts
28-Mar-21 17:55 34.182475 -116.841076 101 8926ft 79kts
28-Mar-21 17:56 34.178094 -116.816477 102 9416ft 70kts
28-Mar-21 17:57 34.172977 -116.787723 102 9557ft 103kts
28-Mar-21 17:58 34.164191 -116.751923 106 9647ft 115kts
28-Mar-21 17:59 34.165497 -116.713234 79 9740ft 116kts
28-Mar-21 18:00 34.170544 -116.674545 81 9807ft 118kts
28-Mar-21 18:01 34.175771 -116.635002 81 9798ft 119kts
28-Mar-21 18:02 34.180942 -116.595710 81 9812ft 118kts
28-Mar-21 18:03 34.186124 -116.556116 81 9815ft 119kts
28-Mar-21 18:04 34.191288 -116.516600 81 9815ft 119kts
28-Mar-21 18:05 34.196452 -116.476980 81 9816ft 119kts
28-Mar-21 18:06 34.201608 -116.437294 81 9773ft 122kts
28-Mar-21 18:07 34.206841 -116.396937 81 9740ft 120kts
28-Mar-21 18:08 34.211965 -116.357301 81 9739ft 119kts
28-Mar-21 18:09 34.217055 -116.317837 81 9738ft 119kts
28-Mar-21 18:10 34.222133 -116.278317 81 9738ft 119kts
28-Mar-21 18:11 34.227233 -116.238581 81 9738ft 119kts
28-Mar-21 18:12 34.232291 -116.199081 81 9739ft 119kts
28-Mar-21 18:13 34.237344 -116.159444 81 9738ft 119kts
28-Mar-21 18:14 34.242389 -116.119828 81 9739ft 119kts
28-Mar-21 18:15 34.247436 -116.080099 82 9738ft 119kts
28-Mar-21 18:16 34.252450 -116.040410 82 9739ft 119kts
28-Mar-21 18:17 34.257473 -116.000711 82 9738ft 119kts
28-Mar-21 18:18 34.262478 -115.960983 82 9739ft 119kts
28-Mar-21 18:19 34.267466 -115.921240 82 9738ft 119kts
28-Mar-21 18:20 34.272441 -115.881450 82 9738ft 119kts
28-Mar-21 18:21 34.277417 -115.841661 82 9741ft 120kts
28-Mar-21 18:22 34.282407 -115.801569 82 9737ft 120kts
28-Mar-21 18:23 34.287350 -115.761779 82 9777ft 117kts
28-Mar-21 18:24 34.292224 -115.722473 82 9805ft 119kts
28-Mar-21 18:25 34.297127 -115.682777 82 9806ft 119kts
28-Mar-21 18:26 34.302047 -115.642901 82 9807ft 120kts
28-Mar-21 18:27 34.306959 -115.602971 82 9807ft 120kts
28-Mar-21 18:28 34.311862 -115.562987 82 9807ft 120kts
28-Mar-21 18:29 34.316759 -115.522876 82 9807ft 120kts
28-Mar-21 18:30 34.321625 -115.482879 82 9807ft 120kts
28-Mar-21 18:31 34.326492 -115.442837 83 9807ft 120kts
28-Mar-21 18:32 34.331354 -115.402733 83 9806ft 120kts
28-Mar-21 18:33 34.336208 -115.362601 83 9806ft 120kts
28-Mar-21 18:34 34.341055 -115.322345 83 9808ft 120kts
28-Mar-21 18:35 34.345900 -115.282022 83 9806ft 121kts
28-Mar-21 18:36 34.350725 -115.241783 83 9808ft 121kts
28-Mar-21 18:37 34.355538 -115.201542 83 9805ft 120kts
28-Mar-21 18:38 34.360297 -115.161561 83 9807ft 119kts
28-Mar-21 18:39 34.365027 -115.121708 83 9812ft 120kts
28-Mar-21 18:40 34.369811 -115.081325 83 9811ft 121kts
28-Mar-21 18:41 34.374572 -115.041037 83 9810ft 121kts
28-Mar-21 18:42 34.379328 -115.000665 83 9810ft 121kts
28-Mar-21 18:43 34.384067 -114.960287 83 9811ft 120kts
28-Mar-21 18:44 34.388783 -114.920015 83 9811ft 121kts
28-Mar-21 18:45 34.393690 -114.878051 83 9628ft 126kts
28-Mar-21 18:46 34.398479 -114.836870 83 9609ft 121kts
28-Mar-21 18:47 34.403167 -114.796491 83 9607ft 120kts
28-Mar-21 18:48 34.407830 -114.756195 83 9605ft 121kts
28-Mar-21 18:49 34.412491 -114.715783 83 9598ft 121kts
28-Mar-21 18:50 34.417144 -114.675355 83 9599ft 121kts
28-Mar-21 18:51 34.421760 -114.635056 83 9598ft 121kts
28-Mar-21 18:52 34.426378 -114.594667 83 9599ft 121kts
28-Mar-21 18:53 34.430975 -114.554347 83 9599ft 121kts
28-Mar-21 18:54 34.435580 -114.513872 83 9598ft 121kts
28-Mar-21 18:55 34.440144 -114.473589 83 9598ft 120kts
28-Mar-21 18:56 34.444703 -114.433260 83 9598ft 121kts
28-Mar-21 18:57 34.449254 -114.392873 83 9598ft 120kts
28-Mar-21 18:58 34.453774 -114.352610 83 9599ft 120kts
28-Mar-21 18:59 34.458299 -114.312222 83 9599ft 120kts
28-Mar-21 19:00 34.462794 -114.271895 83 9598ft 121kts
28-Mar-21 19:01 34.467298 -114.231422 83 9598ft 121kts
28-Mar-21 19:02 34.471778 -114.191085 83 9599ft 121kts
28-Mar-21 19:03 34.476233 -114.150795 83 9599ft 121kts
28-Mar-21 19:04 34.480695 -114.110322 83 9598ft 120kts
28-Mar-21 19:05 34.485132 -114.069967 83 9598ft 120kts
28-Mar-21 19:06 34.489549 -114.029655 83 9599ft 121kts
28-Mar-21 19:07 34.493966 -113.989261 83 9598ft 120kts
28-Mar-21 19:08 34.498354 -113.948919 83 9598ft 120kts
28-Mar-21 19:09 34.502724 -113.908622 83 9598ft 120kts
28-Mar-21 19:10 34.507102 -113.868216 82 9598ft 120kts
28-Mar-21 19:11 34.511440 -113.827969 82 9598ft 120kts
28-Mar-21 19:12 34.515771 -113.787737 83 9598ft 120kts
28-Mar-21 19:13 34.520037 -113.747987 83 9730ft 111kts
28-Mar-21 19:14 34.524076 -113.710102 82 9826ft 116kts
28-Mar-21 19:15 34.528313 -113.670378 83 9830ft 120kts
28-Mar-21 19:16 34.532604 -113.629979 83 9831ft 120kts
28-Mar-21 19:17 34.536875 -113.589624 83 9832ft 120kts
28-Mar-21 19:18 34.541121 -113.549397 83 9834ft 120kts
28-Mar-21 19:19 34.545352 -113.509171 83 9837ft 120kts
28-Mar-21 19:20 34.549594 -113.468746 83 9838ft 120kts
28-Mar-21 19:21 34.553804 -113.428448 83 9839ft 120kts
28-Mar-21 19:22 34.558004 -113.388147 83 9841ft 120kts
28-Mar-21 19:23 34.562179 -113.347915 83 9842ft 120kts
28-Mar-21 19:24 34.566339 -113.307722 83 9844ft 120kts
28-Mar-21 19:25 34.570494 -113.267456 83 9847ft 119kts
28-Mar-21 19:26 34.574612 -113.227408 83 9849ft 119kts
28-Mar-21 19:27 34.578720 -113.187313 83 9850ft 120kts
28-Mar-21 19:28 34.582824 -113.147143 83 9853ft 120kts
28-Mar-21 19:29 34.586927 -113.106836 83 9854ft 120kts
28-Mar-21 19:30 34.591023 -113.066508 83 9854ft 120kts
28-Mar-21 19:31 34.595081 -113.026362 83 9859ft 120kts
28-Mar-21 19:32 34.599137 -112.986152 83 9860ft 120kts
28-Mar-21 19:33 34.603171 -112.945940 83 9861ft 120kts
28-Mar-21 19:34 34.607197 -112.905733 83 9861ft 119kts
28-Mar-21 19:35 34.611190 -112.865714 83 9820ft 122kts
28-Mar-21 19:37 34.615254 -112.824878 83 9790ft 120kts
28-Mar-21 19:38 34.619244 -112.784591 83 9788ft 119kts
28-Mar-21 19:39 34.623247 -112.744078 83 9638ft 130kts
28-Mar-21 19:40 34.627811 -112.697679 83 8840ft 141kts
28-Mar-21 19:41 34.632299 -112.651893 83 8345ft 134kts
28-Mar-21 19:42 34.636488 -112.609113 83 8195ft 121kts
28-Mar-21 19:43 34.639798 -112.569403 83 8155ft 112kts
28-Mar-21 19:44 34.647770 -112.531626 77 7867ft 114kts
28-Mar-21 19:45 34.651838 -112.505858 82 7589ft 119kts
28-Mar-21 19:46 34.660373 -112.466490 54 6937ft 128kts
28-Mar-21 19:47 34.682696 -112.436176 45 6604ft 106kts
28-Mar-21 19:48 34.697553 -112.412843 105 6230ft 80kts
28-Mar-21 19:49 34.677296 -112.401146 200 5422ft 82kts
28-Mar-21 19:50 34.662849 -112.413715 226 4950ft 7kts
28-Mar-21 19:51 34.662811 -112.414388 305 4953ft 0kts
28-Mar-21 19:52 34.662829 -112.414423 297 4954ft 2kts
28-Mar-21 19:53 34.662134 -112.415356 221 4960ft 11kts
28-Mar-21 19:54 34.660003 -112.417619 219 4970ft 7kts
28-Mar-21 19:55 34.657961 -112.419791 220 4975ft 10kts
28-Mar-21 19:56 34.657414 -112.421631 309 4979ft 7kts
28-Mar-21 19:57 34.658196 -112.422428 217 4978ft 0kts
28-Mar-21 19:58 34.658171 -112.422454 219 4978ft 0kts
28-Mar-21 19:59 34.658172 -112.422454 219 4978ft 0kts

Navigation Log

Ident Type
Flight plan parsing failed, navigation log unavailable